sensor_id;sensor_type;location;lat;lon;timestamp;temperature;humidity
11925;DHT22;6022;48.768;18.608;2022-09-09T00:03:54;19.00;99.90
11925;DHT22;6022;48.768;18.608;2022-09-09T00:06:43;19.50;99.90
11925;DHT22;6022;48.768;18.608;2022-09-09T00:09:27;18.90;99.90
11925;DHT22;6022;48.768;18.608;2022-09-09T00:12:05;18.60;99.90
11925;DHT22;6022;48.768;18.608;2022-09-09T00:23:05;18.10;99.90
11925;DHT22;6022;48.768;18.608;2022-09-09T00:34:30;17.90;99.90
11925;DHT22;6022;48.768;18.608;2022-09-09T00:36:59;19.10;99.90
11925;DHT22;6022;48.768;18.608;2022-09-09T00:39:44;18.10;99.90
11925;DHT22;6022;48.768;18.608;2022-09-09T00:42:30;18.80;99.90
11925;DHT22;6022;48.768;18.608;2022-09-09T00:48:22;18.50;99.90
11925;DHT22;6022;48.768;18.608;2022-09-09T00:51:25;19.00;99.90
11925;DHT22;6022;48.768;18.608;2022-09-09T00:57:25;19.10;99.90
11925;DHT22;6022;48.768;18.608;2022-09-09T01:00:15;18.20;99.90
11925;DHT22;6022;48.768;18.608;2022-09-09T01:09:10;18.70;99.90
11925;DHT22;6022;48.768;18.608;2022-09-09T01:12:02;18.90;99.90
11925;DHT22;6022;48.768;18.608;2022-09-09T01:28:45;17.00;99.90
11925;DHT22;6022;48.768;18.608;2022-09-09T01:31:19;17.80;99.90
11925;DHT22;6022;48.768;18.608;2022-09-09T01:36:26;17.60;99.90
11925;DHT22;6022;48.768;18.608;2022-09-09T01:38:56;16.40;99.90
11925;DHT22;6022;48.768;18.608;2022-09-09T01:43:52;18.70;99.90
11925;DHT22;6022;48.768;18.608;2022-09-09T01:46:22;18.70;99.90
11925;DHT22;6022;48.768;18.608;2022-09-09T01:48:51;18.20;99.90
11925;DHT22;6022;48.768;18.608;2022-09-09T01:51:21;18.00;99.90
11925;DHT22;6022;48.768;18.608;2022-09-09T01:53:50;18.70;99.90
11925;DHT22;6022;48.768;18.608;2022-09-09T02:04:52;17.40;99.90
11925;DHT22;6022;48.768;18.608;2022-09-09T02:07:42;16.80;99.90
11925;DHT22;6022;48.768;18.608;2022-09-09T02:10:24;18.00;99.90
11925;DHT22;6022;48.768;18.608;2022-09-09T02:13:12;19.30;99.90
11925;DHT22;6022;48.768;18.608;2022-09-09T02:15:57;16.90;99.90
11925;DHT22;6022;48.768;18.608;2022-09-09T02:21:31;16.30;99.90
11925;DHT22;6022;48.768;18.608;2022-09-09T02:24:05;17.10;99.90
11925;DHT22;6022;48.768;18.608;2022-09-09T02:26:40;18.30;99.90
11925;DHT22;6022;48.768;18.608;2022-09-09T02:29:14;17.40;99.90
11925;DHT22;6022;48.768;18.608;2022-09-09T02:31:47;17.80;99.90
11925;DHT22;6022;48.768;18.608;2022-09-09T02:34:18;17.00;99.90
11925;DHT22;6022;48.768;18.608;2022-09-09T02:36:49;17.10;99.90
11925;DHT22;6022;48.768;18.608;2022-09-09T02:41:45;17.80;99.90
11925;DHT22;6022;48.768;18.608;2022-09-09T02:44:16;17.10;99.90
11925;DHT22;6022;48.768;18.608;2022-09-09T02:55:38;17.00;99.90
11925;DHT22;6022;48.768;18.608;2022-09-09T02:58:15;16.20;99.90
11925;DHT22;6022;48.768;18.608;2022-09-09T03:00:50;16.90;99.90
11925;DHT22;6022;48.768;18.608;2022-09-09T03:03:20;16.90;99.90
11925;DHT22;6022;48.768;18.608;2022-09-09T03:05:49;16.20;99.90
11925;DHT22;6022;48.768;18.608;2022-09-09T03:10:44;15.90;99.90
11925;DHT22;6022;48.768;18.608;2022-09-09T03:18:10;17.80;99.90
11925;DHT22;6022;48.768;18.608;2022-09-09T03:23:04;16.80;99.90
11925;DHT22;6022;48.768;18.608;2022-09-09T03:25:31;16.90;99.90
11925;DHT22;6022;48.768;18.608;2022-09-09T03:35:24;16.20;99.90
11925;DHT22;6022;48.768;18.608;2022-09-09T03:47:44;17.10;99.90
11925;DHT22;6022;48.768;18.608;2022-09-09T03:50:12;17.00;99.90
11925;DHT22;6022;48.768;18.608;2022-09-09T03:52:40;16.20;99.90
11925;DHT22;6022;48.768;18.608;2022-09-09T04:00:06;16.20;99.90
11925;DHT22;6022;48.768;18.608;2022-09-09T04:02:34;16.50;99.90
11925;DHT22;6022;48.768;18.608;2022-09-09T04:05:03;16.50;99.90
11925;DHT22;6022;48.768;18.608;2022-09-09T04:07:31;16.20;99.90
11925;DHT22;6022;48.768;18.608;2022-09-09T04:09:59;17.10;99.90
11925;DHT22;6022;48.768;18.608;2022-09-09T04:12:26;16.30;99.90
11925;DHT22;6022;48.768;18.608;2022-09-09T04:17:21;15.20;99.90
11925;DHT22;6022;48.768;18.608;2022-09-09T04:27:14;16.40;99.90
11925;DHT22;6022;48.768;18.608;2022-09-09T04:29:41;15.00;99.90
11925;DHT22;6022;48.768;18.608;2022-09-09T04:32:08;17.60;99.90
11925;DHT22;6022;48.768;18.608;2022-09-09T04:34:36;16.60;99.90
11925;DHT22;6022;48.768;18.608;2022-09-09T04:37:04;15.10;99.90
11925;DHT22;6022;48.768;18.608;2022-09-09T04:39:31;16.60;99.90
11925;DHT22;6022;48.768;18.608;2022-09-09T04:41:58;15.70;99.90
11925;DHT22;6022;48.768;18.608;2022-09-09T04:44:25;17.10;99.90
11925;DHT22;6022;48.768;18.608;2022-09-09T04:49:22;16.30;99.90
11925;DHT22;6022;48.768;18.608;2022-09-09T04:51:49;17.00;99.90
11925;DHT22;6022;48.768;18.608;2022-09-09T04:54:17;15.50;99.90
11925;DHT22;6022;48.768;18.608;2022-09-09T04:56:44;16.10;99.90
11925;DHT22;6022;48.768;18.608;2022-09-09T04:59:11;17.40;99.90
11925;DHT22;6022;48.768;18.608;2022-09-09T05:04:07;17.90;99.90
11925;DHT22;6022;48.768;18.608;2022-09-09T05:11:33;16.40;99.90
11925;DHT22;6022;48.768;18.608;2022-09-09T05:14:04;16.70;99.90
11925;DHT22;6022;48.768;18.608;2022-09-09T05:16:31;17.40;99.90
11925;DHT22;6022;48.768;18.608;2022-09-09T05:18:59;17.40;99.90
11925;DHT22;6022;48.768;18.608;2022-09-09T05:28:51;17.60;99.90
11925;DHT22;6022;48.768;18.608;2022-09-09T05:31:19;18.60;99.90
11925;DHT22;6022;48.768;18.608;2022-09-09T05:33:47;18.10;99.90
11925;DHT22;6022;48.768;18.608;2022-09-09T05:36:17;21.00;99.90
11925;DHT22;6022;48.768;18.608;2022-09-09T05:38:47;19.10;99.90
11925;DHT22;6022;48.768;18.608;2022-09-09T05:43:43;18.90;99.90
11925;DHT22;6022;48.768;18.608;2022-09-09T05:46:13;19.40;99.90
11925;DHT22;6022;48.768;18.608;2022-09-09T05:48:52;21.10;99.90
11925;DHT22;6022;48.768;18.608;2022-09-09T05:51:22;21.70;99.90
11925;DHT22;6022;48.768;18.608;2022-09-09T05:53:51;23.40;99.90
11925;DHT22;6022;48.768;18.608;2022-09-09T05:56:23;23.70;99.90
11925;DHT22;6022;48.768;18.608;2022-09-09T05:58:53;24.90;99.90
11925;DHT22;6022;48.768;18.608;2022-09-09T06:01:25;26.80;99.90
11925;DHT22;6022;48.768;18.608;2022-09-09T06:06:25;25.30;99.90
11925;DHT22;6022;48.768;18.608;2022-09-09T06:08:55;24.70;99.90
11925;DHT22;6022;48.768;18.608;2022-09-09T06:11:30;24.50;99.90
11925;DHT22;6022;48.768;18.608;2022-09-09T06:13:58;23.70;99.90
11925;DHT22;6022;48.768;18.608;2022-09-09T06:16:28;26.00;99.90
11925;DHT22;6022;48.768;18.608;2022-09-09T06:18:57;26.80;99.90
11925;DHT22;6022;48.768;18.608;2022-09-09T06:21:29;26.80;99.90
11925;DHT22;6022;48.768;18.608;2022-09-09T06:23:59;26.10;99.90
11925;DHT22;6022;48.768;18.608;2022-09-09T06:26:35;26.90;99.90
11925;DHT22;6022;48.768;18.608;2022-09-09T06:31:36;25.90;99.90
11925;DHT22;6022;48.768;18.608;2022-09-09T06:34:06;26.10;99.90
11925;DHT22;6022;48.768;18.608;2022-09-09T06:36:36;25.70;99.90
11925;DHT22;6022;48.768;18.608;2022-09-09T06:39:06;26.10;99.90
11925;DHT22;6022;48.768;18.608;2022-09-09T06:44:09;28.10;99.90
11925;DHT22;6022;48.768;18.608;2022-09-09T06:46:38;30.70;99.90
11925;DHT22;6022;48.768;18.608;2022-09-09T06:49:08;28.30;99.90
11925;DHT22;6022;48.768;18.608;2022-09-09T06:51:37;28.20;99.90
11925;DHT22;6022;48.768;18.608;2022-09-09T06:54:11;28.40;99.90
11925;DHT22;6022;48.768;18.608;2022-09-09T06:56:40;28.00;99.90
11925;DHT22;6022;48.768;18.608;2022-09-09T06:59:10;27.70;99.90
11925;DHT22;6022;48.768;18.608;2022-09-09T07:01:40;28.10;99.90
11925;DHT22;6022;48.768;18.608;2022-09-09T07:04:11;29.70;99.90
11925;DHT22;6022;48.768;18.608;2022-09-09T07:06:42;27.60;99.90
11925;DHT22;6022;48.768;18.608;2022-09-09T07:09:14;29.30;99.40
11925;DHT22;6022;48.768;18.608;2022-09-09T07:11:44;30.00;96.70
11925;DHT22;6022;48.768;18.608;2022-09-09T07:16:42;30.60;92.80
11925;DHT22;6022;48.768;18.608;2022-09-09T07:19:11;31.60;93.00
11925;DHT22;6022;48.768;18.608;2022-09-09T07:21:41;33.10;90.90
11925;DHT22;6022;48.768;18.608;2022-09-09T07:24:09;33.30;84.80
11925;DHT22;6022;48.768;18.608;2022-09-09T07:26:38;33.10;80.60
11925;DHT22;6022;48.768;18.608;2022-09-09T07:29:06;32.80;78.90
11925;DHT22;6022;48.768;18.608;2022-09-09T07:31:36;33.00;77.20
11925;DHT22;6022;48.768;18.608;2022-09-09T07:34:07;33.50;76.40
11925;DHT22;6022;48.768;18.608;2022-09-09T07:36:38;33.20;73.70
11925;DHT22;6022;48.768;18.608;2022-09-09T07:39:09;33.60;69.80
11925;DHT22;6022;48.768;18.608;2022-09-09T07:42:02;34.00;67.40
11925;DHT22;6022;48.768;18.608;2022-09-09T07:44:31;34.30;66.80
11925;DHT22;6022;48.768;18.608;2022-09-09T07:47:02;34.10;66.30
11925;DHT22;6022;48.768;18.608;2022-09-09T07:49:30;36.10;64.10
11925;DHT22;6022;48.768;18.608;2022-09-09T07:51:58;35.20;59.50
11925;DHT22;6022;48.768;18.608;2022-09-09T07:54:26;36.00;58.00
11925;DHT22;6022;48.768;18.608;2022-09-09T08:01:50;36.70;55.40
11925;DHT22;6022;48.768;18.608;2022-09-09T08:04:23;37.10;54.30
11925;DHT22;6022;48.768;18.608;2022-09-09T08:09:21;34.40;50.30
11925;DHT22;6022;48.768;18.608;2022-09-09T08:14:19;35.40;52.50
11925;DHT22;6022;48.768;18.608;2022-09-09T08:16:48;36.20;51.40
11925;DHT22;6022;48.768;18.608;2022-09-09T08:19:16;34.50;51.20
11925;DHT22;6022;48.768;18.608;2022-09-09T08:21:44;36.20;52.20
11925;DHT22;6022;48.768;18.608;2022-09-09T08:24:12;36.90;52.70
11925;DHT22;6022;48.768;18.608;2022-09-09T08:26:44;33.50;50.60
11925;DHT22;6022;48.768;18.608;2022-09-09T08:29:14;33.90;51.50
11925;DHT22;6022;48.768;18.608;2022-09-09T08:31:49;35.80;51.70
11925;DHT22;6022;48.768;18.608;2022-09-09T08:36:48;36.40;48.90
11925;DHT22;6022;48.768;18.608;2022-09-09T08:39:18;37.70;49.90
11925;DHT22;6022;48.768;18.608;2022-09-09T08:45:15;37.70;47.20
11925;DHT22;6022;48.768;18.608;2022-09-09T08:51:01;34.70;48.30
11925;DHT22;6022;48.768;18.608;2022-09-09T08:53:38;36.00;49.10
11925;DHT22;6022;48.768;18.608;2022-09-09T08:56:14;36.20;47.40
11925;DHT22;6022;48.768;18.608;2022-09-09T08:58:48;37.10;46.70
11925;DHT22;6022;48.768;18.608;2022-09-09T09:13:20;36.10;44.30
11925;DHT22;6022;48.768;18.608;2022-09-09T09:16:02;35.90;44.80
11925;DHT22;6022;48.768;18.608;2022-09-09T09:24:01;36.40;42.70
11925;DHT22;6022;48.768;18.608;2022-09-09T09:26:34;34.30;41.70
11925;DHT22;6022;48.768;18.608;2022-09-09T09:29:12;34.50;41.90
11925;DHT22;6022;48.768;18.608;2022-09-09T09:31:54;36.90;42.60
11925;DHT22;6022;48.768;18.608;2022-09-09T09:36:56;37.40;41.20
11925;DHT22;6022;48.768;18.608;2022-09-09T09:39:28;37.60;43.20
11925;DHT22;6022;48.768;18.608;2022-09-09T09:42:17;36.20;41.60
11925;DHT22;6022;48.768;18.608;2022-09-09T09:44:49;34.80;40.50
11925;DHT22;6022;48.768;18.608;2022-09-09T09:47:20;34.30;41.50
11925;DHT22;6022;48.768;18.608;2022-09-09T09:49:58;36.10;41.90
11925;DHT22;6022;48.768;18.608;2022-09-09T09:52:30;36.30;42.80
11925;DHT22;6022;48.768;18.608;2022-09-09T09:54:59;35.70;42.10
11925;DHT22;6022;48.768;18.608;2022-09-09T10:02:45;35.50;42.30
11925;DHT22;6022;48.768;18.608;2022-09-09T10:05:22;34.00;43.60
11925;DHT22;6022;48.768;18.608;2022-09-09T10:08:14;35.50;42.60
11925;DHT22;6022;48.768;18.608;2022-09-09T10:13:24;37.40;47.20
11925;DHT22;6022;48.768;18.608;2022-09-09T10:18:51;35.30;45.00
11925;DHT22;6022;48.768;18.608;2022-09-09T10:30:19;34.80;45.00
11925;DHT22;6022;48.768;18.608;2022-09-09T10:38:41;34.00;45.80
11925;DHT22;6022;48.768;18.608;2022-09-09T10:44:21;33.70;49.30
11925;DHT22;6022;48.768;18.608;2022-09-09T10:47:21;32.30;47.10
11925;DHT22;6022;48.768;18.608;2022-09-09T10:53:46;32.70;44.60
11925;DHT22;6022;48.768;18.608;2022-09-09T10:56:32;34.40;45.50
11925;DHT22;6022;48.768;18.608;2022-09-09T10:59:13;33.10;45.40
11925;DHT22;6022;48.768;18.608;2022-09-09T11:02:26;34.00;45.10
11925;DHT22;6022;48.768;18.608;2022-09-09T11:07:49;33.80;47.40
11925;DHT22;6022;48.768;18.608;2022-09-09T11:10:40;32.80;43.30
11925;DHT22;6022;48.768;18.608;2022-09-09T11:16:38;33.90;45.60
11925;DHT22;6022;48.768;18.608;2022-09-09T11:19:33;35.70;43.20
11925;DHT22;6022;48.768;18.608;2022-09-09T11:22:27;35.80;43.80
11925;DHT22;6022;48.768;18.608;2022-09-09T11:33:19;32.10;41.70
11925;DHT22;6022;48.768;18.608;2022-09-09T11:36:38;32.90;43.40
11925;DHT22;6022;48.768;18.608;2022-09-09T11:39:27;32.20;43.20
11925;DHT22;6022;48.768;18.608;2022-09-09T11:44:40;32.60;45.10
11925;DHT22;6022;48.768;18.608;2022-09-09T11:47:27;32.40;45.80
11925;DHT22;6022;48.768;18.608;2022-09-09T11:52:44;31.50;44.20
11925;DHT22;6022;48.768;18.608;2022-09-09T11:58:14;31.70;44.10
11925;DHT22;6022;48.768;18.608;2022-09-09T12:00:46;31.70;43.90
11925;DHT22;6022;48.768;18.608;2022-09-09T12:03:41;32.20;43.00
11925;DHT22;6022;48.768;18.608;2022-09-09T12:06:20;32.50;44.90
11925;DHT22;6022;48.768;18.608;2022-09-09T12:09:04;31.60;41.30
11925;DHT22;6022;48.768;18.608;2022-09-09T12:14:02;31.80;45.10
11925;DHT22;6022;48.768;18.608;2022-09-09T12:16:34;31.60;45.90
11925;DHT22;6022;48.768;18.608;2022-09-09T12:19:22;31.50;46.40
11925;DHT22;6022;48.768;18.608;2022-09-09T12:22:06;30.90;47.40
11925;DHT22;6022;48.768;18.608;2022-09-09T12:24:45;31.90;44.30
11925;DHT22;6022;48.768;18.608;2022-09-09T12:27:25;32.50;46.80
11925;DHT22;6022;48.768;18.608;2022-09-09T12:30:14;31.00;48.40
11925;DHT22;6022;48.768;18.608;2022-09-09T12:32:42;30.80;48.50
11925;DHT22;6022;48.768;18.608;2022-09-09T12:35:16;31.60;45.70
11925;DHT22;6022;48.768;18.608;2022-09-09T12:38:17;32.20;48.60
11925;DHT22;6022;48.768;18.608;2022-09-09T12:40:57;31.70;48.70
11925;DHT22;6022;48.768;18.608;2022-09-09T12:43:26;28.90;48.10
11925;DHT22;6022;48.768;18.608;2022-09-09T12:46:01;29.30;48.00
11925;DHT22;6022;48.768;18.608;2022-09-09T12:48:39;29.80;49.10
11925;DHT22;6022;48.768;18.608;2022-09-09T12:51:30;29.90;50.30
11925;DHT22;6022;48.768;18.608;2022-09-09T12:53:59;28.80;50.20
11925;DHT22;6022;48.768;18.608;2022-09-09T12:56:31;29.90;52.30
11925;DHT22;6022;48.768;18.608;2022-09-09T13:01:30;31.40;50.70
11925;DHT22;6022;48.768;18.608;2022-09-09T13:03:59;30.70;53.70
11925;DHT22;6022;48.768;18.608;2022-09-09T13:06:31;30.60;50.40
11925;DHT22;6022;48.768;18.608;2022-09-09T13:09:01;31.90;51.00
11925;DHT22;6022;48.768;18.608;2022-09-09T13:14:27;31.50;50.00
11925;DHT22;6022;48.768;18.608;2022-09-09T13:16:59;31.80;50.80
11925;DHT22;6022;48.768;18.608;2022-09-09T13:19:33;31.60;51.00
11925;DHT22;6022;48.768;18.608;2022-09-09T13:22:21;32.10;50.20
11925;DHT22;6022;48.768;18.608;2022-09-09T13:27:58;30.40;49.90
11925;DHT22;6022;48.768;18.608;2022-09-09T13:30:31;30.20;50.00
11925;DHT22;6022;48.768;18.608;2022-09-09T13:38:08;29.50;49.90
11925;DHT22;6022;48.768;18.608;2022-09-09T13:40:37;29.40;52.50
11925;DHT22;6022;48.768;18.608;2022-09-09T13:46:03;29.00;51.40
11925;DHT22;6022;48.768;18.608;2022-09-09T13:49:02;28.80;53.20
11925;DHT22;6022;48.768;18.608;2022-09-09T13:52:08;28.80;51.60
11925;DHT22;6022;48.768;18.608;2022-09-09T13:54:41;28.30;53.10
11925;DHT22;6022;48.768;18.608;2022-09-09T13:57:17;28.70;53.90
11925;DHT22;6022;48.768;18.608;2022-09-09T13:59:46;29.10;54.90
11925;DHT22;6022;48.768;18.608;2022-09-09T14:04:58;28.20;54.30
11925;DHT22;6022;48.768;18.608;2022-09-09T14:07:26;28.60;53.40
11925;DHT22;6022;48.768;18.608;2022-09-09T14:12:22;28.30;55.00
11925;DHT22;6022;48.768;18.608;2022-09-09T14:29:35;28.20;56.20
11925;DHT22;6022;48.768;18.608;2022-09-09T14:32:03;29.20;57.90
11925;DHT22;6022;48.768;18.608;2022-09-09T14:34:35;29.00;59.50
11925;DHT22;6022;48.768;18.608;2022-09-09T14:37:02;28.40;58.50
11925;DHT22;6022;48.768;18.608;2022-09-09T14:39:29;28.60;59.80
11925;DHT22;6022;48.768;18.608;2022-09-09T14:44:25;28.20;61.40
11925;DHT22;6022;48.768;18.608;2022-09-09T14:46:52;29.30;59.10
11925;DHT22;6022;48.768;18.608;2022-09-09T14:49:20;27.90;58.70
11925;DHT22;6022;48.768;18.608;2022-09-09T14:51:48;28.90;60.00
11925;DHT22;6022;48.768;18.608;2022-09-09T14:56:43;28.10;60.20
11925;DHT22;6022;48.768;18.608;2022-09-09T15:09:06;28.00;61.30
11925;DHT22;6022;48.768;18.608;2022-09-09T15:11:35;28.10;59.00
11925;DHT22;6022;48.768;18.608;2022-09-09T15:14:05;27.70;57.40
11925;DHT22;6022;48.768;18.608;2022-09-09T15:19:02;27.70;57.10
11925;DHT22;6022;48.768;18.608;2022-09-09T15:21:32;27.50;58.00
11925;DHT22;6022;48.768;18.608;2022-09-09T15:26:29;28.90;60.90
11925;DHT22;6022;48.768;18.608;2022-09-09T15:31:28;27.30;60.00
11925;DHT22;6022;48.768;18.608;2022-09-09T15:33:59;27.10;59.80
11925;DHT22;6022;48.768;18.608;2022-09-09T15:36:42;26.00;60.00
11925;DHT22;6022;48.768;18.608;2022-09-09T15:39:12;26.80;60.40
11925;DHT22;6022;48.768;18.608;2022-09-09T15:41:46;26.40;61.70
11925;DHT22;6022;48.768;18.608;2022-09-09T15:44:15;26.60;63.60
11925;DHT22;6022;48.768;18.608;2022-09-09T15:46:50;25.90;62.70
11925;DHT22;6022;48.768;18.608;2022-09-09T15:49:22;26.50;62.90
11925;DHT22;6022;48.768;18.608;2022-09-09T15:51:53;25.60;65.60
11925;DHT22;6022;48.768;18.608;2022-09-09T15:54:26;26.40;64.80
11925;DHT22;6022;48.768;18.608;2022-09-09T15:56:56;25.10;65.80
11925;DHT22;6022;48.768;18.608;2022-09-09T15:59:26;26.80;67.20
11925;DHT22;6022;48.768;18.608;2022-09-09T16:04:27;26.30;67.40
11925;DHT22;6022;48.768;18.608;2022-09-09T16:06:59;26.30;67.80
11925;DHT22;6022;48.768;18.608;2022-09-09T16:09:28;25.70;69.40
11925;DHT22;6022;48.768;18.608;2022-09-09T16:11:58;25.30;68.90
11925;DHT22;6022;48.768;18.608;2022-09-09T16:19:25;24.90;71.60
11925;DHT22;6022;48.768;18.608;2022-09-09T16:26:49;25.50;74.40
11925;DHT22;6022;48.768;18.608;2022-09-09T16:29:18;25.50;75.10
11925;DHT22;6022;48.768;18.608;2022-09-09T16:34:16;25.30;78.10
11925;DHT22;6022;48.768;18.608;2022-09-09T16:36:45;25.30;81.60
11925;DHT22;6022;48.768;18.608;2022-09-09T16:39:17;25.20;81.10
11925;DHT22;6022;48.768;18.608;2022-09-09T16:41:46;25.10;82.20
11925;DHT22;6022;48.768;18.608;2022-09-09T16:44:17;25.00;83.70
11925;DHT22;6022;48.768;18.608;2022-09-09T16:46:47;25.10;86.40
11925;DHT22;6022;48.768;18.608;2022-09-09T16:49:25;24.90;90.30
11925;DHT22;6022;48.768;18.608;2022-09-09T16:56:54;24.60;94.40
11925;DHT22;6022;48.768;18.608;2022-09-09T16:59:21;25.00;96.00
11925;DHT22;6022;48.768;18.608;2022-09-09T17:04:25;24.40;95.90
11925;DHT22;6022;48.768;18.608;2022-09-09T17:06:54;24.40;96.50
11925;DHT22;6022;48.768;18.608;2022-09-09T17:09:25;24.40;97.50
11925;DHT22;6022;48.768;18.608;2022-09-09T17:14:24;25.30;98.70
11925;DHT22;6022;48.768;18.608;2022-09-09T17:24:34;23.10;99.90
11925;DHT22;6022;48.768;18.608;2022-09-09T17:27:05;25.00;99.90
11925;DHT22;6022;48.768;18.608;2022-09-09T17:29:32;23.10;99.90
11925;DHT22;6022;48.768;18.608;2022-09-09T17:32:03;23.70;99.90
11925;DHT22;6022;48.768;18.608;2022-09-09T17:34:32;25.30;99.90
11925;DHT22;6022;48.768;18.608;2022-09-09T17:44:24;23.20;99.90
11925;DHT22;6022;48.768;18.608;2022-09-09T17:49:18;23.50;99.90
11925;DHT22;6022;48.768;18.608;2022-09-09T17:54:16;22.80;99.90
11925;DHT22;6022;48.768;18.608;2022-09-09T17:56:46;23.00;99.90
11925;DHT22;6022;48.768;18.608;2022-09-09T17:59:15;22.90;99.90
11925;DHT22;6022;48.768;18.608;2022-09-09T18:01:46;22.90;99.90
11925;DHT22;6022;48.768;18.608;2022-09-09T18:06:50;22.80;99.90
11925;DHT22;6022;48.768;18.608;2022-09-09T18:09:24;22.50;99.90
11925;DHT22;6022;48.768;18.608;2022-09-09T18:11:54;22.70;99.90
11925;DHT22;6022;48.768;18.608;2022-09-09T18:14:26;22.60;99.90
11925;DHT22;6022;48.768;18.608;2022-09-09T18:16:57;22.70;99.90
11925;DHT22;6022;48.768;18.608;2022-09-09T18:19:27;22.70;99.90
11925;DHT22;6022;48.768;18.608;2022-09-09T18:21:56;23.70;99.90
11925;DHT22;6022;48.768;18.608;2022-09-09T18:31:53;22.60;99.90
11925;DHT22;6022;48.768;18.608;2022-09-09T18:34:22;22.40;99.90
11925;DHT22;6022;48.768;18.608;2022-09-09T18:36:52;22.50;99.90
11925;DHT22;6022;48.768;18.608;2022-09-09T18:39:24;22.90;99.90
11925;DHT22;6022;48.768;18.608;2022-09-09T18:41:56;22.40;99.90
11925;DHT22;6022;48.768;18.608;2022-09-09T18:44:32;22.40;99.90
11925;DHT22;6022;48.768;18.608;2022-09-09T18:47:00;22.20;99.90
11925;DHT22;6022;48.768;18.608;2022-09-09T18:49:29;22.80;99.90
11925;DHT22;6022;48.768;18.608;2022-09-09T18:54:29;22.40;99.90
11925;DHT22;6022;48.768;18.608;2022-09-09T18:59:27;22.10;99.90
11925;DHT22;6022;48.768;18.608;2022-09-09T19:06:53;22.00;99.90
11925;DHT22;6022;48.768;18.608;2022-09-09T19:09:29;22.10;99.90
11925;DHT22;6022;48.768;18.608;2022-09-09T19:11:59;21.90;99.90
11925;DHT22;6022;48.768;18.608;2022-09-09T19:14:27;21.90;99.90
11925;DHT22;6022;48.768;18.608;2022-09-09T19:19:29;22.00;99.90
11925;DHT22;6022;48.768;18.608;2022-09-09T19:22:01;22.10;99.90
11925;DHT22;6022;48.768;18.608;2022-09-09T19:24:31;22.40;99.90
11925;DHT22;6022;48.768;18.608;2022-09-09T19:27:02;22.40;99.90
11925;DHT22;6022;48.768;18.608;2022-09-09T19:29:34;21.70;99.90
11925;DHT22;6022;48.768;18.608;2022-09-09T19:34:51;22.30;99.90
11925;DHT22;6022;48.768;18.608;2022-09-09T19:37:19;21.60;99.90
11925;DHT22;6022;48.768;18.608;2022-09-09T19:39:47;22.20;99.90
11925;DHT22;6022;48.768;18.608;2022-09-09T19:42:21;20.70;99.90
11925;DHT22;6022;48.768;18.608;2022-09-09T19:47:17;21.50;99.90
11925;DHT22;6022;48.768;18.608;2022-09-09T19:54:42;22.40;99.90
11925;DHT22;6022;48.768;18.608;2022-09-09T19:57:11;21.00;99.90
11925;DHT22;6022;48.768;18.608;2022-09-09T19:59:39;20.20;99.90
11925;DHT22;6022;48.768;18.608;2022-09-09T20:02:10;21.50;99.90
11925;DHT22;6022;48.768;18.608;2022-09-09T20:09:34;22.10;99.90
11925;DHT22;6022;48.768;18.608;2022-09-09T20:12:02;22.20;99.90
11925;DHT22;6022;48.768;18.608;2022-09-09T20:14:32;19.80;99.90
11925;DHT22;6022;48.768;18.608;2022-09-09T20:24:28;20.10;99.90
11925;DHT22;6022;48.768;18.608;2022-09-09T20:26:55;20.70;99.90
11925;DHT22;6022;48.768;18.608;2022-09-09T20:34:19;20.30;99.90
11925;DHT22;6022;48.768;18.608;2022-09-09T20:39:21;22.20;99.90
11925;DHT22;6022;48.768;18.608;2022-09-09T20:44:21;20.40;99.90
11925;DHT22;6022;48.768;18.608;2022-09-09T20:46:52;20.30;99.90
11925;DHT22;6022;48.768;18.608;2022-09-09T20:49:28;20.30;99.90
11925;DHT22;6022;48.768;18.608;2022-09-09T20:54:25;20.60;99.90
11925;DHT22;6022;48.768;18.608;2022-09-09T20:56:54;20.90;99.90
11925;DHT22;6022;48.768;18.608;2022-09-09T20:59:23;20.80;99.90
11925;DHT22;6022;48.768;18.608;2022-09-09T21:01:52;20.40;99.90
11925;DHT22;6022;48.768;18.608;2022-09-09T21:04:21;19.90;99.90
11925;DHT22;6022;48.768;18.608;2022-09-09T21:06:49;20.40;99.90
11925;DHT22;6022;48.768;18.608;2022-09-09T21:09:17;20.30;99.90
11925;DHT22;6022;48.768;18.608;2022-09-09T21:19:09;20.40;99.90
11925;DHT22;6022;48.768;18.608;2022-09-09T21:26:31;20.50;99.90
11925;DHT22;6022;48.768;18.608;2022-09-09T21:33:58;19.80;99.90
11925;DHT22;6022;48.768;18.608;2022-09-09T21:38:55;19.80;99.90
11925;DHT22;6022;48.768;18.608;2022-09-09T21:41:25;20.20;99.90
11925;DHT22;6022;48.768;18.608;2022-09-09T21:43:53;19.80;99.90
11925;DHT22;6022;48.768;18.608;2022-09-09T21:46:21;19.80;99.90
11925;DHT22;6022;48.768;18.608;2022-09-09T21:48:49;20.30;99.90
11925;DHT22;6022;48.768;18.608;2022-09-09T21:56:17;19.80;99.90
11925;DHT22;6022;48.768;18.608;2022-09-09T21:58:45;20.00;99.90
11925;DHT22;6022;48.768;18.608;2022-09-09T22:01:15;19.80;99.90
11925;DHT22;6022;48.768;18.608;2022-09-09T22:03:44;19.80;99.90
11925;DHT22;6022;48.768;18.608;2022-09-09T22:06:15;20.10;99.90
11925;DHT22;6022;48.768;18.608;2022-09-09T22:08:44;19.60;99.90
11925;DHT22;6022;48.768;18.608;2022-09-09T22:11:18;19.70;99.90
11925;DHT22;6022;48.768;18.608;2022-09-09T22:13:48;19.50;99.90
11925;DHT22;6022;48.768;18.608;2022-09-09T22:16:18;19.50;99.90
11925;DHT22;6022;48.768;18.608;2022-09-09T22:18:58;20.20;99.90
11925;DHT22;6022;48.768;18.608;2022-09-09T22:21:27;19.40;99.90
11925;DHT22;6022;48.768;18.608;2022-09-09T22:23:59;19.60;99.90
11925;DHT22;6022;48.768;18.608;2022-09-09T22:26:30;20.10;99.90
11925;DHT22;6022;48.768;18.608;2022-09-09T22:29:00;19.70;99.90
11925;DHT22;6022;48.768;18.608;2022-09-09T22:31:27;19.10;99.90
11925;DHT22;6022;48.768;18.608;2022-09-09T22:38:52;20.00;99.90
11925;DHT22;6022;48.768;18.608;2022-09-09T22:41:20;20.30;99.90
11925;DHT22;6022;48.768;18.608;2022-09-09T22:46:16;19.80;99.90
11925;DHT22;6022;48.768;18.608;2022-09-09T22:48:44;20.30;99.90
11925;DHT22;6022;48.768;18.608;2022-09-09T22:51:13;19.30;99.90
11925;DHT22;6022;48.768;18.608;2022-09-09T22:53:42;19.80;99.90
11925;DHT22;6022;48.768;18.608;2022-09-09T22:56:16;19.30;99.90
11925;DHT22;6022;48.768;18.608;2022-09-09T22:58:46;19.00;99.90
11925;DHT22;6022;48.768;18.608;2022-09-09T23:01:16;19.30;99.90
11925;DHT22;6022;48.768;18.608;2022-09-09T23:06:16;19.00;99.90
11925;DHT22;6022;48.768;18.608;2022-09-09T23:08:51;20.00;99.90
11925;DHT22;6022;48.768;18.608;2022-09-09T23:11:26;19.30;99.90
11925;DHT22;6022;48.768;18.608;2022-09-09T23:13:59;18.10;99.90
11925;DHT22;6022;48.768;18.608;2022-09-09T23:16:36;19.20;99.90
11925;DHT22;6022;48.768;18.608;2022-09-09T23:19:07;20.20;99.90
11925;DHT22;6022;48.768;18.608;2022-09-09T23:21:42;19.20;99.90